Time;durP1;ratioP1;P1;durP2;ratioP2;P2;SDS_P1;SDS_P2;PMS_P1;PMS_P2;Temp;Humidity;BMP_temperature;BMP_pressure;BME280_temperature;BME280_humidity;BME280_pressure;Samples;Min_cycle;Max_cycle;Signal;HPM_P1;HPM_P2
2021/12/31 00:01:35;;;;;;;94.30;32.93;;;;;;;-2.02;74.17;101640.91;1799829;78;25734;-62
2021/12/31 00:04:02;;;;;;;96.57;32.13;;;;;;;-2.00;74.32;101655.37;1799218;79;25788;-61
2021/12/31 00:06:30;;;;;;;103.40;34.80;;;;;;;-1.96;74.58;101649.11;1773836;80;28324;-61
2021/12/31 00:09:00;;;;;;;111.20;33.35;;;;;;;-1.91;74.82;101657.34;1777492;79;25766;-59
2021/12/31 00:11:27;;;;;;;109.03;37.10;;;;;;;-1.89;74.64;101656.00;1771195;80;25802;-59
2021/12/31 00:13:56;;;;;;;105.32;35.60;;;;;;;-1.82;74.80;101651.44;1768547;80;26199;-60
2021/12/31 00:16:22;;;;;;;114.55;35.83;;;;;;;-1.80;74.59;101657.12;1745806;80;25758;-61
2021/12/31 00:18:53;;;;;;;119.70;39.23;;;;;;;-1.86;74.45;101653.28;1744709;82;27460;-61
2021/12/31 00:21:24;;;;;;;110.15;38.02;;;;;;;-1.82;74.35;101643.09;1744678;82;26188;-61
2021/12/31 00:23:51;;;;;;;112.83;35.88;;;;;;;-1.79;74.37;101648.27;1796518;79;26411;-61
2021/12/31 00:26:18;;;;;;;118.02;37.85;;;;;;;-1.75;74.46;101657.87;1799508;79;25695;-61
2021/12/31 00:28:45;;;;;;;109.55;36.80;;;;;;;-1.69;74.64;101656.86;1799559;79;25540;-61
2021/12/31 00:31:14;;;;;;;106.15;34.48;;;;;;;-1.65;74.51;101657.19;1799536;79;27476;-61
2021/12/31 00:33:41;;;;;;;113.10;37.70;;;;;;;-1.69;74.18;101659.50;1799000;78;25767;-60
2021/12/31 00:36:07;;;;;;;120.35;40.45;;;;;;;-1.70;74.17;101660.40;1799474;79;25625;-60
2021/12/31 00:38:34;;;;;;;124.70;39.33;;;;;;;-1.69;74.13;101653.34;1773509;79;26160;-61
2021/12/31 00:41:01;;;;;;;117.55;40.15;;;;;;;-1.82;73.90;101647.05;1760619;80;26165;-61
2021/12/31 00:43:30;;;;;;;113.28;38.02;;;;;;;-1.79;74.32;101636.87;1769169;80;27942;-61
2021/12/31 00:45:57;;;;;;;114.10;36.38;;;;;;;-1.74;74.33;101623.11;1775384;80;27262;-61
2021/12/31 00:48:25;;;;;;;113.60;39.18;;;;;;;-1.69;74.42;101613.77;1807226;78;25719;-61
2021/12/31 00:50:52;;;;;;;106.55;36.98;;;;;;;-1.66;74.33;101610.59;1819349;78;25726;-61
2021/12/31 00:53:19;;;;;;;112.47;37.88;;;;;;;-1.65;74.07;101611.48;1768321;78;25771;-61
2021/12/31 00:55:46;;;;;;;110.20;36.20;;;;;;;-1.72;73.94;101615.18;1797259;79;27482;-61
2021/12/31 00:58:13;;;;;;;110.60;37.65;;;;;;;-1.71;74.05;101619.55;1799149;79;25793;-60
2021/12/31 01:00:40;;;;;;;98.58;33.53;;;;;;;-1.74;74.14;101622.67;1785371;79;25721;-60
2021/12/31 01:03:09;;;;;;;109.27;37.03;;;;;;;-1.69;74.45;101625.64;1772547;80;25719;-59
2021/12/31 01:05:36;;;;;;;100.12;37.65;;;;;;;-1.64;74.54;101624.62;1775565;80;25762;-61
2021/12/31 01:08:04;;;;;;;109.52;35.43;;;;;;;-1.59;74.52;101620.13;1773569;80;27550;-60
2021/12/31 01:10:31;;;;;;;112.35;39.25;;;;;;;-1.57;74.27;101624.89;1778758;79;25885;-61
2021/12/31 01:12:58;;;;;;;126.70;41.60;;;;;;;-1.56;74.25;101620.50;1776029;80;25658;-60
2021/12/31 01:15:42;;;;;;;116.77;39.03;;;;;;;-1.53;74.41;101616.48;1768403;80;25694;-61
2021/12/31 01:20:36;;;;;;;102.12;36.17;;;;;;;-1.51;74.08;101603.23;1768122;81;27530;-61
2021/12/31 01:23:05;;;;;;;116.53;39.33;;;;;;;-1.53;73.71;101599.76;1767966;79;25670;-61
2021/12/31 01:25:32;;;;;;;98.70;35.88;;;;;;;-1.64;73.62;101608.80;1762580;79;25753;-61
2021/12/31 01:27:59;;;;;;;116.28;40.23;;;;;;;-1.70;73.90;101607.64;1762118;81;25521;-61
2021/12/31 01:30:30;;;;;;;110.40;36.15;;;;;;;-1.74;74.03;101602.89;1762085;81;25755;-60
2021/12/31 01:32:59;;;;;;;97.90;35.35;;;;;;;-1.77;74.14;101596.36;1761998;81;27507;-61
2021/12/31 01:35:26;;;;;;;113.03;36.45;;;;;;;-1.78;74.40;101593.77;1761450;81;26214;-61
2021/12/31 01:37:53;;;;;;;114.17;36.17;;;;;;;-1.73;74.72;101594.51;1762071;81;25792;-61
2021/12/31 01:40:20;;;;;;;108.87;35.03;;;;;;;-1.65;75.07;101598.29;1804983;78;25744;-59
2021/12/31 01:42:46;;;;;;;99.20;34.67;;;;;;;-1.61;74.77;101595.54;1790762;78;25785;-61
2021/12/31 01:45:18;;;;;;;111.80;36.45;;;;;;;-1.54;74.88;101588.78;1721573;83;27480;-61
2021/12/31 01:50:15;;;;;;;107.78;36.42;;;;;;;-1.51;74.33;101579.48;1770363;81;25694;-60
2021/12/31 01:52:42;;;;;;;120.97;38.08;;;;;;;-1.51;74.49;101581.66;1768117;80;26171;-61
2021/12/31 01:55:13;;;;;;;108.70;36.73;;;;;;;-1.48;74.50;101574.98;1759837;80;25742;-61
2021/12/31 01:57:42;;;;;;;105.60;34.95;;;;;;;-1.46;74.54;101566.59;1739758;82;27533;-60
2021/12/31 02:00:11;;;;;;;116.40;35.92;;;;;;;-1.45;74.63;101561.73;1736508;81;25676;-61
2021/12/31 02:02:42;;;;;;;118.65;37.53;;;;;;;-1.43;74.54;101553.76;1758881;78;26544;-61
2021/12/31 02:05:10;;;;;;;108.07;36.53;;;;;;;-1.39;74.71;101558.03;1822414;78;26236;-61
2021/12/31 02:07:38;;;;;;;113.28;36.98;;;;;;;-1.39;74.52;101547.48;1825435;78;25788;-61
2021/12/31 02:10:09;;;;;;;109.25;35.10;;;;;;;-1.37;74.58;101552.73;1788822;80;27506;-61
2021/12/31 02:12:45;;;;;;;105.75;34.25;;;;;;;-1.36;74.43;101562.39;1785364;79;25831;-61
2021/12/31 02:15:17;;;;;;;109.03;35.60;;;;;;;-1.33;74.53;101564.93;1778733;80;25746;-59
2021/12/31 02:17:47;;;;;;;111.40;35.58;;;;;;;-1.32;74.57;101560.06;1778545;80;25726;-60
2021/12/31 02:20:16;;;;;;;101.02;35.63;;;;;;;-1.32;74.42;101556.99;1778798;80;25712;-60
2021/12/31 02:22:52;;;;;;;110.15;36.55;;;;;;;-1.30;74.42;101553.84;1778319;80;27449;-61
2021/12/31 02:25:15;;;;;;;102.22;35.85;;;;;;;-1.29;74.32;101550.30;1777248;80;25809;-60
2021/12/31 02:27:42;;;;;;;107.90;36.28;;;;;;;-1.31;74.07;101543.33;1786199;79;25728;-60
2021/12/31 02:30:11;;;;;;;103.62;34.03;;;;;;;-1.34;74.13;101544.72;1775506;79;25746;-61
2021/12/31 02:32:39;;;;;;;105.45;35.55;;;;;;;-1.36;74.12;101539.48;1778732;80;25741;-61
2021/12/31 02:35:09;;;;;;;92.92;34.40;;;;;;;-1.35;74.25;101533.30;1778623;80;27546;-61
2021/12/31 02:37:36;;;;;;;107.63;34.67;;;;;;;-1.34;74.25;101537.68;1778750;80;25461;-61
2021/12/31 02:40:08;;;;;;;101.78;34.35;;;;;;;-1.40;73.96;101548.84;1769578;80;25806;-61
2021/12/31 02:42:37;;;;;;;103.83;35.40;;;;;;;-1.41;74.15;101541.39;1768049;80;25736;-61
2021/12/31 02:45:07;;;;;;;115.55;37.80;;;;;;;-1.42;74.20;101537.88;1777593;79;25721;-61
2021/12/31 02:47:43;;;;;;;92.90;34.40;;;;;;;-1.45;73.86;101530.49;1788398;79;27497;-61
2021/12/31 02:50:12;;;;;;;100.80;36.55;;;;;;;-1.49;73.94;101532.34;1775218;80;25793;-61
2021/12/31 02:52:45;;;;;;;83.80;30.55;;;;;;;-1.63;73.57;101543.25;1775630;80;25810;-60
2021/12/31 02:55:12;;;;;;;97.45;32.95;;;;;;;-1.68;74.14;101549.11;1775558;80;26141;-60
2021/12/31 02:57:41;;;;;;;88.35;29.77;;;;;;;-1.75;74.16;101543.58;1775722;80;25753;-61
2021/12/31 03:00:13;;;;;;;85.80;31.82;;;;;;;-1.74;74.42;101550.56;1788094;79;28343;-61
2021/12/31 03:02:45;;;;;;;97.22;34.13;;;;;;;-1.84;74.11;101540.70;1797256;79;25645;-61
2021/12/31 03:05:13;;;;;;;98.45;34.48;;;;;;;-1.83;74.63;101533.64;1797114;79;25786;-61
2021/12/31 03:07:42;;;;;;;101.62;33.98;;;;;;;-1.79;74.76;101534.00;1797439;79;25712;-61
2021/12/31 03:10:11;;;;;;;89.32;31.20;;;;;;;-1.72;75.04;101536.03;1795903;79;25824;-61
2021/12/31 03:12:40;;;;;;;100.10;34.63;;;;;;;-1.67;75.25;101527.11;1790378;79;27492;-60
2021/12/31 03:15:10;;;;;;;98.82;34.08;;;;;;;-1.65;74.74;101508.13;1762736;79;25827;-58
2021/12/31 03:17:40;;;;;;;93.75;32.75;;;;;;;-1.67;74.54;101519.62;1745087;82;25738;-62
2021/12/31 03:20:12;;;;;;;99.15;34.25;;;;;;;-1.69;74.63;101511.77;1745122;82;26234;-59
2021/12/31 03:22:39;;;;;;;93.67;32.63;;;;;;;-1.68;74.70;101512.61;1744687;82;25500;-60
2021/12/31 03:25:10;;;;;;;107.25;35.78;;;;;;;-1.64;75.08;101523.05;1745406;82;28220;-60
2021/12/31 03:27:37;;;;;;;93.03;32.70;;;;;;;-1.61;75.16;101517.70;1744981;82;25722;-61
2021/12/31 03:30:06;;;;;;;97.37;33.80;;;;;;;-1.57;75.20;101529.89;1774071;79;25724;-60
2021/12/31 03:32:34;;;;;;;96.37;33.92;;;;;;;-1.53;75.18;101520.59;1797364;79;26268;-60
2021/12/31 03:35:01;;;;;;;89.45;31.90;;;;;;;-1.51;75.08;101514.36;1797417;79;25792;-60
2021/12/31 03:37:28;;;;;;;96.92;33.95;;;;;;;-1.46;75.12;101517.77;1797292;79;28241;-61
2021/12/31 03:39:58;;;;;;;96.90;32.78;;;;;;;-1.43;75.16;101528.69;1797419;79;25793;-61
2021/12/31 03:42:24;;;;;;;84.15;32.00;;;;;;;-1.44;74.69;101511.11;1774963;79;25729;-61
2021/12/31 03:44:51;;;;;;;82.80;30.52;;;;;;;-1.47;74.41;101505.47;1755814;79;25716;-61
2021/12/31 03:47:20;;;;;;;87.42;31.15;;;;;;;-1.49;74.63;101513.02;1788723;79;25708;-61
2021/12/31 03:49:50;;;;;;;84.03;31.17;;;;;;;-1.48;74.91;101499.78;1765984;81;27117;-61
2021/12/31 03:52:17;;;;;;;82.55;30.77;;;;;;;-1.45;75.12;101508.06;1765600;81;25806;-60
2021/12/31 03:54:44;;;;;;;80.42;29.40;;;;;;;-1.41;75.14;101517.64;1765278;81;25955;-60
2021/12/31 03:57:10;;;;;;;81.28;32.33;;;;;;;-1.36;75.25;101509.60;1765887;81;26291;-61
2021/12/31 03:59:37;;;;;;;81.65;30.25;;;;;;;-1.36;75.04;101506.96;1766165;79;25787;-61
2021/12/31 04:02:04;;;;;;;82.05;30.62;;;;;;;-1.38;75.03;101508.77;1765289;81;27479;-59
2021/12/31 04:04:35;;;;;;;82.65;30.70;;;;;;;-1.37;74.91;101519.27;1765511;81;25794;-61
2021/12/31 04:07:05;;;;;;;77.82;30.57;;;;;;;-1.37;74.99;101515.31;1765639;81;25786;-60
2021/12/31 04:09:34;;;;;;;82.00;30.70;;;;;;;-1.36;74.82;101516.20;1765224;81;25862;-61
2021/12/31 04:12:01;;;;;;;75.03;29.18;;;;;;;-1.38;74.83;101513.58;1765287;81;25529;-59
2021/12/31 04:14:30;;;;;;;86.95;31.70;;;;;;;-1.35;74.93;101502.09;1777959;79;28366;-61
2021/12/31 04:16:57;;;;;;;81.40;31.90;;;;;;;-1.34;74.71;101504.69;1795983;79;25673;-60
2021/12/31 04:19:23;;;;;;;79.72;29.77;;;;;;;-1.34;74.67;101506.00;1765349;81;25609;-60
2021/12/31 04:21:50;;;;;;;76.15;27.75;;;;;;;-1.32;74.84;101504.63;1765267;81;25808;-60
2021/12/31 04:24:40;;;;;;;79.80;28.05;;;;;;;-1.28;74.98;101505.83;1765483;81;25723;-60
2021/12/31 04:26:59;;;;;;;80.40;29.27;;;;;;;-1.23;75.02;101507.48;1763590;81;27497;-60
2021/12/31 04:29:25;;;;;;;78.55;29.32;;;;;;;-1.23;74.87;101507.48;1773357;79;25514;-58
2021/12/31 04:31:52;;;;;;;74.27;29.40;;;;;;;-1.20;74.95;101503.42;1797808;79;25769;-60
2021/12/31 04:34:19;;;;;;;84.52;29.72;;;;;;;-1.23;74.28;101499.57;1797697;79;25807;-60
2021/12/31 04:36:46;;;;;;;77.37;26.90;;;;;;;-1.30;74.37;101493.12;1797723;79;25457;-61
2021/12/31 04:39:14;;;;;;;89.47;29.42;;;;;;;-1.33;74.44;101481.78;1797700;79;27473;-59
2021/12/31 04:41:40;;;;;;;83.37;30.25;;;;;;;-1.37;74.39;101499.48;1799360;79;25795;-61
2021/12/31 04:44:12;;;;;;;85.92;30.50;;;;;;;-1.34;74.74;101497.20;1758547;79;25779;-59
2021/12/31 04:46:39;;;;;;;93.62;31.52;;;;;;;-1.31;74.76;101485.25;1803769;79;25871;-61
2021/12/31 04:49:08;;;;;;;93.85;32.88;;;;;;;-1.27;75.05;101494.83;1777199;80;25838;-60
2021/12/31 04:51:36;;;;;;;94.85;33.58;;;;;;;-1.23;74.97;101495.14;1777232;80;27629;-60
2021/12/31 04:54:07;;;;;;;92.33;33.63;;;;;;;-1.18;75.09;101490.62;1777098;80;25929;-60
2021/12/31 04:56:33;;;;;;;77.53;30.15;;;;;;;-1.14;75.33;101488.75;1777188;80;25843;-60
2021/12/31 04:59:00;;;;;;;81.37;32.08;;;;;;;-1.11;75.51;101497.45;1778972;79;25883;-60
2021/12/31 05:01:27;;;;;;;80.85;31.30;;;;;;;-1.11;75.21;101496.13;1804326;79;25749;-60
2021/12/31 05:03:54;;;;;;;81.42;28.85;;;;;;;-1.15;74.99;101502.86;1804131;79;27515;-61
2021/12/31 05:06:20;;;;;;;80.62;28.17;;;;;;;-1.21;75.08;101506.53;1803776;79;25784;-61
2021/12/31 05:08:47;;;;;;;82.17;29.30;;;;;;;-1.18;75.44;101494.58;1804277;79;25967;-60
2021/12/31 05:11:14;;;;;;;74.20;28.80;;;;;;;-1.16;75.44;101492.73;1804019;79;26508;-61
2021/12/31 05:13:41;;;;;;;97.78;32.08;;;;;;;-1.16;75.59;101491.88;1803364;79;25594;-61
2021/12/31 05:16:11;;;;;;;78.20;26.75;;;;;;;-1.12;75.60;101494.39;1791065;79;27535;-61
2021/12/31 05:18:37;;;;;;;71.00;26.45;;;;;;;-1.08;75.47;101478.01;1803960;79;25833;-60
2021/12/31 05:21:04;;;;;;;77.22;27.37;;;;;;;-1.12;75.27;101473.27;1815070;79;25706;-61
2021/12/31 05:23:31;;;;;;;76.47;26.17;;;;;;;-1.16;75.26;101475.57;1814950;79;25792;-60
2021/12/31 05:26:00;;;;;;;61.42;24.90;;;;;;;-1.16;75.65;101470.77;1814841;79;25799;-62
2021/12/31 05:28:32;;;;;;;61.77;23.55;;;;;;;-1.13;75.70;101465.41;1815048;79;27559;-61
2021/12/31 05:30:59;;;;;;;66.62;25.70;;;;;;;-1.11;75.71;101451.24;1800464;79;25789;-61
2021/12/31 05:33:30;;;;;;;77.67;28.62;;;;;;;-1.03;76.01;101448.83;1787488;78;25729;-61
2021/12/31 05:35:59;;;;;;;69.70;27.85;;;;;;;-0.99;76.12;101457.94;1787582;80;26763;-61
2021/12/31 05:38:26;;;;;;;77.65;28.95;;;;;;;-0.98;75.93;101464.95;1789935;80;26194;-62
2021/12/31 05:40:55;;;;;;;72.97;29.98;;;;;;;-0.95;75.91;101472.80;1788543;80;27457;-61
2021/12/31 05:43:22;;;;;;;69.07;27.55;;;;;;;-1.02;75.52;101476.97;1777270;80;25806;-62
2021/12/31 05:45:49;;;;;;;78.07;26.30;;;;;;;-1.07;75.43;101469.17;1802972;79;25777;-61
2021/12/31 05:48:16;;;;;;;71.70;27.52;;;;;;;-1.06;75.82;101472.23;1790022;79;25795;-60
2021/12/31 05:50:44;;;;;;;65.28;26.68;;;;;;;-1.02;75.82;101475.65;1784338;80;25773;-61
2021/12/31 05:53:12;;;;;;;67.40;26.93;;;;;;;-0.99;75.87;101469.81;1783237;80;27666;-62
2021/12/31 05:55:41;;;;;;;59.67;24.10;;;;;;;-0.97;76.08;101465.37;1784203;79;25934;-61
2021/12/31 05:58:07;;;;;;;61.42;25.60;;;;;;;-0.93;76.17;101471.86;1792904;79;25741;-60
2021/12/31 06:00:34;;;;;;;66.75;25.08;;;;;;;-0.92;76.15;101469.19;1772862;79;26931;-60
2021/12/31 06:03:01;;;;;;;57.17;24.63;;;;;;;-0.92;75.98;101468.31;1790419;80;25809;-61
2021/12/31 06:05:28;;;;;;;58.00;25.20;;;;;;;-0.92;76.03;101468.31;1790486;80;27446;-61
2021/12/31 06:07:59;;;;;;;58.98;25.85;;;;;;;-0.88;75.97;101472.14;1792771;78;25797;-61
2021/12/31 06:10:28;;;;;;;56.15;24.12;;;;;;;-0.86;75.78;101480.89;1793955;80;25737;-61
2021/12/31 06:12:58;;;;;;;60.83;24.15;;;;;;;-0.83;75.93;101478.61;1794225;79;25781;-60
2021/12/31 06:15:28;;;;;;;51.13;22.50;;;;;;;-0.76;76.24;101472.22;1794220;80;25876;-60
2021/12/31 06:17:55;;;;;;;54.93;23.50;;;;;;;-0.69;75.96;101467.63;1789208;79;28215;-61
2021/12/31 06:20:24;;;;;;;55.65;22.58;;;;;;;-0.69;75.67;101472.91;1784322;80;25704;-62
2021/12/31 06:22:51;;;;;;;50.08;22.60;;;;;;;-0.68;75.98;101463.64;1789107;79;25741;-61
2021/12/31 06:25:19;;;;;;;48.10;23.25;;;;;;;-0.63;75.98;101459.53;1802961;79;25779;-60
2021/12/31 06:27:48;;;;;;;52.55;23.52;;;;;;;-0.59;75.79;101461.16;1803420;79;25850;-60
2021/12/31 06:30:14;;;;;;;47.43;21.07;;;;;;;-0.55;75.68;101473.81;1802635;79;28202;-60
2021/12/31 06:32:41;;;;;;;53.87;25.80;;;;;;;-0.58;75.51;101469.97;1802901;79;25775;-60
2021/12/31 06:35:09;;;;;;;53.28;23.65;;;;;;;-0.58;75.63;101465.53;1802889;79;25692;-60
2021/12/31 06:37:39;;;;;;;59.60;26.33;;;;;;;-0.53;75.85;101462.74;1793323;79;26576;-61
2021/12/31 06:40:10;;;;;;;54.53;24.82;;;;;;;-0.52;75.95;101468.44;1784294;80;25770;-60
2021/12/31 06:42:37;;;;;;;57.73;26.02;;;;;;;-0.44;76.13;101476.11;1784249;80;27485;-61
2021/12/31 06:45:05;;;;;;;54.93;25.43;;;;;;;-0.43;75.73;101480.48;1784089;80;25772;-61
2021/12/31 06:47:35;;;;;;;50.58;22.55;;;;;;;-0.42;75.79;101475.17;1767444;80;25498;-61
2021/12/31 06:50:04;;;;;;;54.88;24.67;;;;;;;-0.41;75.59;101466.77;1739820;82;25858;-61
2021/12/31 06:52:40;;;;;;;50.03;23.18;;;;;;;-0.35;75.86;101463.92;1758998;79;25816;-60
2021/12/31 06:55:09;;;;;;;54.03;23.60;;;;;;;-0.27;75.73;101465.86;1770621;81;27470;-60
2021/12/31 06:57:36;;;;;;;67.58;25.30;;;;;;;-0.29;75.33;101466.39;1770425;81;25781;-59
2021/12/31 07:00:07;;;;;;;52.03;22.48;;;;;;;-0.26;75.59;101463.63;1770781;81;25742;-61
2021/12/31 07:02:33;;;;;;;49.55;23.55;;;;;;;-0.21;75.33;101470.09;1770309;81;25866;-61
2021/12/31 07:05:00;;;;;;;49.75;23.25;;;;;;;-0.20;75.05;101467.86;1770573;79;25846;-60
2021/12/31 07:07:28;;;;;;;54.25;22.82;;;;;;;-0.22;75.20;101470.56;1780302;79;27318;-60
2021/12/31 07:09:54;;;;;;;51.80;21.80;;;;;;;-0.21;75.04;101470.98;1784254;80;25737;-60
2021/12/31 07:12:21;;;;;;;57.80;24.15;;;;;;;-0.19;74.97;101474.45;1784598;80;25496;-61
2021/12/31 07:14:48;;;;;;;49.45;23.22;;;;;;;-0.09;75.32;101482.94;1784292;80;25810;-61
2021/12/31 07:17:14;;;;;;;49.10;23.60;;;;;;;-0.10;75.15;101486.48;1784225;80;26065;-60
2021/12/31 07:19:43;;;;;;;51.88;21.87;;;;;;;-0.10;75.21;101481.67;1784500;79;27454;-60
2021/12/31 07:22:11;;;;;;;47.62;22.20;;;;;;;-0.04;75.29;101480.14;1796042;79;25736;-60
2021/12/31 07:24:41;;;;;;;54.42;23.42;;;;;;;0.04;75.37;101490.48;1802827;78;25689;-61
2021/12/31 07:27:08;;;;;;;52.20;24.72;;;;;;;0.15;75.72;101479.05;1803060;79;25799;-61
2021/12/31 07:29:34;;;;;;;51.45;23.18;;;;;;;0.27;75.59;101486.59;1803288;78;25841;-60
2021/12/31 07:32:01;;;;;;;50.90;23.75;;;;;;;0.33;75.53;101481.55;1802992;79;27510;-61
2021/12/31 07:34:28;;;;;;;49.25;22.98;;;;;;;0.33;75.10;101474.94;1802201;79;25712;-61
2021/12/31 07:36:55;;;;;;;56.45;25.92;;;;;;;0.39;75.28;101468.57;1784247;80;25687;-60
2021/12/31 07:39:31;;;;;;;54.95;25.97;;;;;;;0.52;75.45;101467.67;1784236;80;25779;-61
2021/12/31 07:41:54;;;;;;;51.70;25.52;;;;;;;0.57;74.79;101471.89;1770536;80;25815;-60
2021/12/31 07:44:22;;;;;;;63.20;26.73;;;;;;;0.54;74.39;101470.67;1759374;81;28302;-60
2021/12/31 07:46:49;;;;;;;52.93;22.87;;;;;;;0.53;74.42;101478.67;1761560;80;25793;-60
2021/12/31 07:49:16;;;;;;;57.75;25.82;;;;;;;0.48;74.48;101476.19;1776122;79;25749;-60
2021/12/31 07:51:43;;;;;;;54.20;24.57;;;;;;;0.46;74.53;101484.64;1790405;79;25807;-60
2021/12/31 07:54:10;;;;;;;53.63;25.80;;;;;;;0.54;74.65;101485.70;1761433;81;25779;-60
2021/12/31 07:56:41;;;;;;;64.37;26.37;;;;;;;0.59;74.84;101487.72;1761719;81;27450;-60
2021/12/31 07:59:08;;;;;;;56.53;24.63;;;;;;;0.66;74.87;101479.95;1761060;81;25804;-60
2021/12/31 08:01:35;;;;;;;60.43;25.80;;;;;;;0.81;74.90;101479.02;1761275;81;25730;-61
2021/12/31 08:04:02;;;;;;;55.12;24.98;;;;;;;0.92;74.84;101482.99;1761233;81;25788;-60
2021/12/31 08:06:30;;;;;;;56.18;25.17;;;;;;;1.04;74.76;101488.73;1763279;79;25731;-60
2021/12/31 08:08:57;;;;;;;60.25;25.65;;;;;;;1.12;73.63;101491.11;1761667;80;27478;-60
2021/12/31 08:11:24;;;;;;;62.00;28.32;;;;;;;1.15;74.22;101498.95;1762051;81;25920;-60
2021/12/31 08:13:51;;;;;;;61.98;26.97;;;;;;;1.28;74.15;101504.66;1761944;81;25687;-61
2021/12/31 08:16:20;;;;;;;61.08;27.20;;;;;;;1.33;74.28;101501.36;1762179;81;25799;-60
2021/12/31 08:18:47;;;;;;;62.10;27.95;;;;;;;1.36;74.09;101502.10;1761888;81;25734;-60
2021/12/31 08:21:14;;;;;;;57.62;26.85;;;;;;;1.42;74.22;101502.33;1769706;79;28212;-61
2021/12/31 08:23:41;;;;;;;65.67;28.92;;;;;;;1.48;74.13;101506.54;1799450;79;26363;-61
2021/12/31 08:26:09;;;;;;;53.58;25.52;;;;;;;1.50;73.79;101514.83;1799394;79;25576;-61
2021/12/31 08:28:39;;;;;;;60.03;26.30;;;;;;;1.37;73.21;101514.44;1799537;79;26629;-62
2021/12/31 08:31:07;;;;;;;65.45;27.15;;;;;;;1.28;73.22;101512.61;1768388;79;26396;-60
2021/12/31 08:33:34;;;;;;;60.65;27.45;;;;;;;1.30;73.43;101505.47;1761850;81;27531;-61
2021/12/31 08:36:03;;;;;;;59.98;27.70;;;;;;;1.31;73.60;101505.41;1761894;81;26031;-61
2021/12/31 08:38:29;;;;;;;52.27;25.10;;;;;;;1.43;73.93;101495.27;1761144;80;25772;-61
2021/12/31 08:40:57;;;;;;;57.15;26.77;;;;;;;1.58;73.76;101482.72;1762831;80;25703;-60
2021/12/31 08:43:29;;;;;;;55.40;27.58;;;;;;;1.74;73.95;101469.72;1784333;80;25754;-61
2021/12/31 08:45:59;;;;;;;60.40;29.15;;;;;;;1.94;73.69;101465.36;1797288;79;27472;-61
2021/12/31 08:48:28;;;;;;;62.65;29.45;;;;;;;2.12;73.34;101469.05;1784132;80;25863;-61
2021/12/31 08:50:54;;;;;;;61.37;27.77;;;;;;;2.28;72.93;101465.30;1784321;80;25775;-60
2021/12/31 08:53:22;;;;;;;66.82;30.23;;;;;;;2.37;72.22;101460.92;1771780;80;25818;-60
2021/12/31 08:55:50;;;;;;;67.15;30.43;;;;;;;2.40;72.53;101467.41;1770834;81;25869;-61
2021/12/31 08:58:17;;;;;;;60.55;29.32;;;;;;;2.42;72.08;101468.69;1770355;79;28379;-61
2021/12/31 09:00:44;;;;;;;53.52;27.95;;;;;;;2.65;72.04;101469.86;1773267;79;27318;-61
2021/12/31 09:03:12;;;;;;;54.85;27.55;;;;;;;3.17;70.96;101467.58;1784399;80;25654;-62
2021/12/31 09:05:39;;;;;;;53.85;27.82;;;;;;;3.54;70.92;101460.52;1784213;80;25891;-61
2021/12/31 09:08:06;;;;;;;51.98;26.07;;;;;;;3.57;70.39;101455.91;1784194;80;25767;-61
2021/12/31 09:10:33;;;;;;;59.95;29.52;;;;;;;3.53;70.44;101452.14;1784248;80;27469;-61
2021/12/31 09:13:00;;;;;;;54.73;28.35;;;;;;;3.56;70.20;101449.31;1785650;79;25836;-60
2021/12/31 09:15:27;;;;;;;54.30;27.15;;;;;;;3.62;69.25;101457.02;1784407;80;25809;-60
2021/12/31 09:17:56;;;;;;;56.10;29.37;;;;;;;3.70;69.70;101464.16;1784255;80;26596;-61
2021/12/31 09:20:23;;;;;;;56.95;28.25;;;;;;;3.76;69.37;101470.51;1786689;79;26044;-61
2021/12/31 09:22:50;;;;;;;54.65;26.37;;;;;;;3.71;68.64;101464.56;1795731;79;28541;-61
2021/12/31 09:25:17;;;;;;;57.55;27.13;;;;;;;3.67;68.90;101468.29;1778302;80;25466;-60
2021/12/31 09:27:45;;;;;;;58.42;29.65;;;;;;;3.49;69.06;101463.85;1781841;80;25837;-61
2021/12/31 09:30:13;;;;;;;56.90;30.37;;;;;;;3.35;68.90;101462.73;1781171;79;25725;-61
2021/12/31 09:32:40;;;;;;;62.62;28.75;;;;;;;3.27;69.14;101465.73;1780691;79;25861;-63
2021/12/31 09:35:09;;;;;;;58.60;29.18;;;;;;;3.25;69.23;101468.08;1778864;80;27414;-62
2021/12/31 09:37:39;;;;;;;59.85;30.55;;;;;;;3.31;69.45;101466.45;1778891;79;25770;-61
2021/12/31 09:40:08;;;;;;;59.08;29.37;;;;;;;3.44;69.97;101462.30;1777939;80;25775;-61
2021/12/31 09:42:38;;;;;;;57.62;29.02;;;;;;;3.53;69.88;101452.14;1776913;78;25782;-62
2021/12/31 09:45:07;;;;;;;56.15;27.98;;;;;;;3.66;69.60;101457.73;1773519;79;26428;-61
2021/12/31 09:47:34;;;;;;;56.08;28.80;;;;;;;3.80;68.96;101458.39;1778895;79;28152;-62
2021/12/31 09:50:00;;;;;;;58.98;28.55;;;;;;;3.93;69.19;101444.85;1777713;79;25767;-62
2021/12/31 09:52:31;;;;;;;52.73;29.57;;;;;;;3.89;68.93;101444.63;1771032;80;25699;-61
2021/12/31 09:55:01;;;;;;;60.52;30.92;;;;;;;3.82;69.50;101440.07;1772253;80;26606;-62
2021/12/31 09:57:28;;;;;;;64.70;31.20;;;;;;;3.74;69.48;101430.28;1776411;80;25691;-61
2021/12/31 10:00:02;;;;;;;59.20;30.52;;;;;;;3.72;69.98;101436.14;1758223;79;27451;-62
2021/12/31 10:02:34;;;;;;;66.20;33.63;;;;;;;3.65;70.56;101437.37;1771454;80;27245;-62
2021/12/31 10:05:02;;;;;;;63.95;31.10;;;;;;;3.65;71.10;101427.59;1771287;80;25771;-62
2021/12/31 10:07:33;;;;;;;62.17;32.17;;;;;;;3.63;70.67;101422.80;1775778;80;25814;-61
2021/12/31 10:10:15;;;;;;;54.88;29.87;;;;;;;3.67;70.49;101422.20;1772598;79;25763;-62
2021/12/31 10:12:56;;;;;;;58.98;28.98;;;;;;;3.69;69.90;101421.19;1777198;79;28295;-60
2021/12/31 10:15:25;;;;;;;52.75;27.20;;;;;;;3.73;69.23;101422.74;1779119;79;26396;-60
2021/12/31 10:17:54;;;;;;;57.90;29.50;;;;;;;3.70;69.68;101417.59;1786343;79;25634;-63
2021/12/31 10:20:22;;;;;;;53.90;28.73;;;;;;;3.66;68.73;101431.13;1787896;79;25987;-61
2021/12/31 10:22:57;;;;;;;50.03;27.10;;;;;;;3.52;68.55;101429.98;1782646;79;25670;-61
2021/12/31 10:25:30;;;;;;;52.75;28.83;;;;;;;3.37;69.24;101430.25;1773201;79;27568;-61
2021/12/31 10:28:13;;;;;;;48.42;28.05;;;;;;;3.22;71.08;101417.23;1779968;79;25791;-59
2021/12/31 10:30:42;;;;;;;58.33;30.08;;;;;;;3.07;71.35;101410.84;1775909;79;36461;-60
2021/12/31 10:33:10;;;;;;;60.52;29.85;;;;;;;3.06;73.15;101402.92;1777347;79;25837;-61
2021/12/31 10:35:45;;;;;;;60.00;30.70;;;;;;;2.97;73.87;101421.02;1777159;79;25851;-61
2021/12/31 10:38:12;;;;;;;52.20;27.52;;;;;;;2.96;74.65;101411.80;1758103;79;27484;-61
2021/12/31 10:40:44;;;;;;;56.80;28.00;;;;;;;2.94;74.22;101418.98;1777542;79;25704;-61
2021/12/31 10:43:21;;;;;;;55.40;29.50;;;;;;;2.79;73.94;101414.78;1777378;79;25744;-61
2021/12/31 10:46:08;;;;;;;55.60;28.55;;;;;;;2.68;74.87;101417.05;1775729;79;26434;-59
2021/12/31 10:48:49;;;;;;;56.77;28.73;;;;;;;2.62;73.85;101413.35;1779273;79;25736;-61
2021/12/31 10:51:39;;;;;;;53.13;27.85;;;;;;;2.56;75.39;101406.97;1773100;79;27444;-61
2021/12/31 10:54:37;;;;;;;57.08;28.62;;;;;;;2.55;73.69;101406.59;1769766;80;25816;-61
2021/12/31 10:57:00;;;;;;;56.83;30.08;;;;;;;2.48;75.60;101396.70;1773547;79;25463;-61
2021/12/31 10:59:33;;;;;;;61.95;29.77;;;;;;;2.62;75.77;101400.91;1776739;79;25777;-61
2021/12/31 11:01:57;;;;;;;70.83;30.20;;;;;;;2.73;76.78;101397.80;1769024;79;25803;-61
2021/12/31 11:04:28;;;;;;;77.62;38.48;;;;;;;2.89;75.96;101394.42;1769928;80;28149;-61
2021/12/31 11:06:56;;;;;;;57.53;28.87;;;;;;;2.98;76.43;101388.20;1777145;79;25782;-61
2021/12/31 11:09:24;;;;;;;56.28;30.27;;;;;;;3.04;76.59;101392.84;1774488;79;25750;-61
2021/12/31 11:11:53;;;;;;;53.83;27.52;;;;;;;3.08;76.22;101387.77;1777304;79;25785;-61
2021/12/31 11:14:20;;;;;;;47.17;27.07;;;;;;;3.24;76.28;101386.58;1767687;80;25794;-61
2021/12/31 11:16:49;;;;;;;52.40;27.85;;;;;;;3.25;76.70;101375.01;1773324;79;27471;-62
2021/12/31 11:19:20;;;;;;;49.00;26.82;;;;;;;3.32;78.00;101380.42;1774846;80;25729;-60
2021/12/31 11:21:49;;;;;;;44.18;23.85;;;;;;;3.34;77.24;101385.20;1773128;79;25767;-61